Bloomington, IN (47401)

6:55 PM EDT on April 27, 2017 (GMT -0400)
Johnson Turtle Field | | Change Station

Elev 686 ft 39.12 °N, 86.51 °W | Updated 48 seconds ago

Overcast
Overcast
57.1 °F
Feels Like 57.1 °F
N
2.0
Wind Variable Wind from SW
Gusts 8.0 mph

Today
High -- | Low -- °F
--% Chance of Precip.
Yesterday
High -- | Low -- °F
Precip. -- in
Pressure 29.77 in
Visibility 10.0 miles
Clouds Few 3000 ft
Mostly Cloudy 4000 ft
Dew Point 48 °F
Humidity 71%
Rainfall 0.18 in
Snow Depth Not available.
6:52 AM 8:35 PM
Waxing Crescent, 3% visible
METAR KIND 272154Z 25012KT 10SM FEW030 BKN040 13/07 A2978 RMK AO2 SLP081 T01330067
Pressure 29.77 in
Visibility 10.0 miles
Clouds Few 3000 ft
Mostly Cloudy 4000 ft
Dew Point 48 °F
Humidity 71%
Rainfall 0.18 in
Snow Depth Not available.
6:52 AM 8:35 PM
Waxing Crescent, 3% visible
METAR KIND 272154Z 25012KT 10SM FEW030 BKN040 13/07 A2978 RMK AO2 SLP081 T01330067

Get Severe Weather Alerts

Thanks for signing up!

Be on the lookout for a verification email in your inbox.

You'll start receiving the daily forecast at 8 AM.

×

10-Day Weather Forecast

Almanac

Astronomy

Apr. 27, 2017 Rise Set
Actual Time
Civil Twilight
Nautical Twilight
Astronomical Twilight
Moon
Length of Visible Light
Length of Day
Tomorrow will be .
, % of the Moon is Illuminated

Today's Extremes

State Highs State Lows

Community

WunderPhotos

WunderBlog® & News

Nearby

Air Quality

  Air Quality AQ Index Pollutant
Not available.

Snow Depth

Station Depth Elevation

Earthquake Activity

City Distance Mag. Time & Date
Minimum magnitude displayed is 2.5.

Coastal Water Temperatures

Place Temperature

Stations

Nearby Weather Stations

Station Location Temp. Windchill Dew Point Humidity Wind Precip. Elev Updated Type
                   

Watches & Warnings

There are currently no watches in effect.